Time;durP1;ratioP1;P1;durP2;ratioP2;P2;SDS_P1;SDS_P2;PMS_P1;PMS_P2;Temp;Humidity;BMP_temperature;BMP_pressure;BME280_temperature;BME280_humidity;BME280_pressure;Samples;Min_cycle;Max_cycle;Signal;HPM_P1;HPM_P2
2021/05/31 00:01:17;;;;;;;5;1.5;;;;;;;8.03;69.62988;942.8005;;;;
2021/05/31 00:03:42;;;;;;;1.7;1.2;;;;;;;7.93;70.2832;942.7572;;;;
2021/05/31 00:06:39;;;;;;;2.5;1.1;;;;;;;7.87;70.08008;942.7349;;;;
2021/05/31 00:09:04;;;;;;;2;1.5;;;;;;;7.68;70.17383;942.6622;;;;
2021/05/31 00:11:29;;;;;;;1.4;0.8;;;;;;;7.61;71.11523;942.6967;;;;
2021/05/31 00:13:55;;;;;;;2.4;1.1;;;;;;;7.56;70.82227;942.6584;;;;
2021/05/31 00:16:20;;;;;;;3.6;1.2;;;;;;;7.58;70.62305;942.6671;;;;
2021/05/31 00:18:46;;;;;;;1.2;0.9;;;;;;;7.4;70.79688;942.6261;;;;
2021/05/31 00:21:11;;;;;;;2.3;1.3;;;;;;;7.31;71.30371;942.6503;;;;
2021/05/31 00:23:37;;;;;;;1.5;1;;;;;;;7.28;71.69434;942.6384;;;;
2021/05/31 00:26:02;;;;;;;1.6;1.1;;;;;;;7.39;71.56641;942.6415;;;;
2021/05/31 00:28:28;;;;;;;1.1;1;;;;;;;7.38;71.57617;942.6652;;;;
2021/05/31 00:30:53;;;;;;;1.9;1.1;;;;;;;7.29;71.73242;942.6223;;;;
2021/05/31 00:33:52;;;;;;;0.8;0.8;;;;;;;7.29;72.12793;942.6088;;;;
2021/05/31 00:36:18;;;;;;;1.1;1;;;;;;;7.24;73.00391;942.6326;;;;
2021/05/31 00:38:43;;;;;;;1.8;1.1;;;;;;;7.34;71.87598;942.6102;;;;
2021/05/31 00:41:09;;;;;;;2.3;1.2;;;;;;;7.35;71.66113;942.5596;;;;
2021/05/31 00:43:34;;;;;;;1.1;0.9;;;;;;;7.41;71.24121;942.5775;;;;
2021/05/31 00:46:01;;;;;;;2.3;1.3;;;;;;;7.31;71.85938;942.519;;;;
2021/05/31 00:48:27;;;;;;;1.7;1.1;;;;;;;7.39;71.45215;942.3998;;;;
2021/05/31 00:50:53;;;;;;;1.7;1;;;;;;;7.44;71.33594;942.4975;;;;
2021/05/31 00:53:19;;;;;;;2.6;1.4;;;;;;;7.32;71.35059;942.5089;;;;
2021/05/31 00:55:44;;;;;;;2.9;1.1;;;;;;;7.24;71.56348;942.5009;;;;
2021/05/31 00:58:09;;;;;;;5.6;1.6;;;;;;;7.18;71.93848;942.5117;;;;
2021/05/31 01:00:36;;;;;;;2.6;1;;;;;;;7.1;72.41309;942.3962;;;;
2021/05/31 01:03:01;;;;;;;1.1;1;;;;;;;7.12;72.35938;942.3683;;;;
2021/05/31 01:06:56;;;;;;;1.6;1.4;;;;;;;7.18;71.99512;942.3898;;;;
2021/05/31 01:09:27;;;;;;;2.6;1.6;;;;;;;7.07;72.58789;942.3365;;;;
2021/05/31 01:11:46;;;;;;;1.3;1.1;;;;;;;7.07;72.30469;942.3677;;;;
2021/05/31 01:14:21;;;;;;;3.5;1.3;;;;;;;7.1;72.33398;942.3044;;;;
2021/05/31 01:16:46;;;;;;;4.9;1.5;;;;;;;7.2;71.80566;942.3315;;;;
2021/05/31 01:19:12;;;;;;;3.3;1.3;;;;;;;7.24;71.59766;942.4116;;;;
2021/05/31 01:21:37;;;;;;;1.3;1;;;;;;;7.27;71.72852;942.4109;;;;
2021/05/31 01:24:02;;;;;;;3.4;1.6;;;;;;;7.29;71.58398;942.3616;;;;
2021/05/31 01:26:27;;;;;;;2.1;1.2;;;;;;;7.26;71.64551;942.3433;;;;
2021/05/31 01:28:52;;;;;;;1.5;1;;;;;;;7.14;72.00195;942.3705;;;;
2021/05/31 01:31:17;;;;;;;1.7;1.4;;;;;;;7.02;72.43359;942.2974;;;;
2021/05/31 01:33:42;;;;;;;3;1.1;;;;;;;6.95;72.58008;942.272;;;;
2021/05/31 01:36:07;;;;;;;1.1;1;;;;;;;6.92;72.58496;942.2488;;;;
2021/05/31 01:38:33;;;;;;;1;0.9;;;;;;;6.91;72.75293;942.2343;;;;
2021/05/31 01:40:58;;;;;;;2.7;1.2;;;;;;;6.87;72.74707;942.2405;;;;
2021/05/31 01:43:23;;;;;;;1.4;1.2;;;;;;;6.76;73.01172;942.1195;;;;
2021/05/31 01:45:48;;;;;;;2.6;1.3;;;;;;;6.66;73.35645;942.2242;;;;
2021/05/31 01:48:13;;;;;;;5.2;1.7;;;;;;;6.55;73.99414;942.242;;;;
2021/05/31 01:50:40;;;;;;;2.2;1.3;;;;;;;6.51;73.81836;942.2647;;;;
2021/05/31 01:53:05;;;;;;;4.1;1.5;;;;;;;6.42;74.1875;942.2404;;;;
2021/05/31 01:56:02;;;;;;;2.2;1.4;;;;;;;6.3;74.76465;942.1738;;;;
2021/05/31 01:58:33;;;;;;;1.2;1;;;;;;;6.25;74.73438;942.106;;;;
2021/05/31 02:00:58;;;;;;;2.1;1.4;;;;;;;6.32;74.39648;942.1437;;;;
2021/05/31 02:03:24;;;;;;;2.3;1.4;;;;;;;6.45;74.01172;942.0569;;;;
2021/05/31 02:05:49;;;;;;;2;1.1;;;;;;;6.41;74.08301;941.9767;;;;
2021/05/31 02:08:16;;;;;;;2.2;1.5;;;;;;;6.47;73.66211;941.9601;;;;
2021/05/31 02:10:41;;;;;;;1.2;1;;;;;;;6.51;73.3418;941.9543;;;;
2021/05/31 02:13:07;;;;;;;1.6;1;;;;;;;6.4;73.69629;941.949;;;;
2021/05/31 02:15:34;;;;;;;1.7;1.3;;;;;;;6.33;74.0459;941.9066;;;;
2021/05/31 02:17:59;;;;;;;1;0.9;;;;;;;6.32;74.15918;941.8566;;;;
2021/05/31 02:20:24;;;;;;;1.5;1.3;;;;;;;6.34;74.6709;941.8865;;;;
2021/05/31 02:22:49;;;;;;;2.2;1.1;;;;;;;6.43;74.00781;941.8531;;;;
2021/05/31 02:25:14;;;;;;;2;1.2;;;;;;;6.4;73.89063;941.9105;;;;
2021/05/31 02:27:40;;;;;;;1.7;1.4;;;;;;;6.33;74.51074;941.8719;;;;
2021/05/31 02:30:05;;;;;;;2.2;1.5;;;;;;;6.19;74.73633;941.9377;;;;
2021/05/31 02:32:32;;;;;;;2.1;1.4;;;;;;;6.07;75.39258;941.8557;;;;
2021/05/31 02:34:57;;;;;;;1.3;1.2;;;;;;;5.96;76.17383;941.918;;;;
2021/05/31 02:37:23;;;;;;;1.5;1;;;;;;;5.84;76.46875;941.8987;;;;
2021/05/31 02:40:05;;;;;;;1.2;1.1;;;;;;;5.77;76.7832;941.9065;;;;
2021/05/31 02:42:30;;;;;;;1.4;1.3;;;;;;;5.71;77.13477;941.8074;;;;
2021/05/31 02:44:55;;;;;;;1.5;1.3;;;;;;;5.64;77.4375;941.9632;;;;
2021/05/31 02:47:20;;;;;;;1.3;1.2;;;;;;;5.58;77.67676;941.8677;;;;
2021/05/31 02:49:45;;;;;;;2;1.4;;;;;;;5.54;77.88281;941.9633;;;;
2021/05/31 02:52:10;;;;;;;1.8;1.1;;;;;;;5.5;77.9668;941.9084;;;;
2021/05/31 02:54:37;;;;;;;2.6;1.5;;;;;;;5.46;78.18555;941.9203;;;;
2021/05/31 02:57:02;;;;;;;2.2;1.4;;;;;;;5.29;78.62793;941.8084;;;;
2021/05/31 02:59:29;;;;;;;1.3;1.2;;;;;;;5.29;79.05469;941.8312;;;;
2021/05/31 03:01:54;;;;;;;1;0.9;;;;;;;5.42;78.63965;941.8304;;;;
2021/05/31 03:04:21;;;;;;;2.8;1.4;;;;;;;5.45;78.20313;941.8092;;;;
2021/05/31 03:06:46;;;;;;;4;1.5;;;;;;;5.38;78.49805;941.7349;;;;
2021/05/31 03:09:12;;;;;;;2.4;1.6;;;;;;;5.45;78.18359;941.7724;;;;
2021/05/31 03:11:37;;;;;;;1.5;1.3;;;;;;;5.39;78.53125;941.7098;;;;
2021/05/31 03:14:03;;;;;;;1.2;1;;;;;;;5.41;78.50098;941.7811;;;;
2021/05/31 03:16:29;;;;;;;1.5;1.4;;;;;;;5.39;78.38477;941.7335;;;;
2021/05/31 03:18:55;;;;;;;2.3;1.3;;;;;;;5.32;78.43945;941.7256;;;;
2021/05/31 03:21:20;;;;;;;3.6;1.4;;;;;;;5.43;78.03027;941.7233;;;;
2021/05/31 03:24:04;;;;;;;1.7;1.1;;;;;;;5.41;77.84863;941.6777;;;;
2021/05/31 03:26:30;;;;;;;3.3;1.8;;;;;;;5.34;78.19629;941.6025;;;;
2021/05/31 03:28:55;;;;;;;3.6;1.7;;;;;;;5.28;78.46777;941.7512;;;;
2021/05/31 03:31:20;;;;;;;1.7;1.4;;;;;;;5.11;78.89941;941.7095;;;;
2021/05/31 03:33:45;;;;;;;6.8;1.9;;;;;;;5.18;78.98047;941.7136;;;;
2021/05/31 03:36:12;;;;;;;4.2;1.4;;;;;;;5.08;79.36621;941.7353;;;;
2021/05/31 03:41:07;;;;;;;4.7;1.6;;;;;;;5.07;79.4541;941.7555;;;;
2021/05/31 03:43:32;;;;;;;1.8;1.3;;;;;;;5.17;79.14551;941.6365;;;;
2021/05/31 03:45:57;;;;;;;1.3;1.2;;;;;;;5.17;78.94434;941.6926;;;;
2021/05/31 03:48:22;;;;;;;3.5;1.5;;;;;;;5.16;79.22266;941.677;;;;
2021/05/31 03:50:47;;;;;;;1.9;1.5;;;;;;;5.09;79.64941;941.7149;;;;
2021/05/31 03:53:12;;;;;;;2.6;1.8;;;;;;;5.21;79.56934;941.7414;;;;
2021/05/31 03:55:37;;;;;;;4.4;1.7;;;;;;;5.02;79.55859;941.7458;;;;
2021/05/31 03:58:04;;;;;;;1.8;1.7;;;;;;;5.05;79.67676;941.6724;;;;
2021/05/31 04:02:30;;;;;;;4.5;1.5;;;;;;;5.21;79.0957;941.7455;;;;
2021/05/31 04:04:55;;;;;;;1.7;1.6;;;;;;;5.27;78.74707;941.7009;;;;
2021/05/31 04:11:33;;;;;;;2.5;1.5;;;;;;;5.36;78.1543;941.7262;;;;
2021/05/31 04:12:11;;;;;;;1.7;1.2;;;;;;;5.42;77.84863;941.6133;;;;
2021/05/31 04:14:37;;;;;;;2.5;1.6;;;;;;;5.49;77.5459;941.5958;;;;
2021/05/31 04:17:02;;;;;;;4.6;1.8;;;;;;;5.41;77.63379;941.6116;;;;
2021/05/31 04:19:27;;;;;;;2.3;1.3;;;;;;;5.34;77.99316;941.6049;;;;
2021/05/31 04:21:52;;;;;;;2.4;1.4;;;;;;;5.29;78.27637;941.5881;;;;
2021/05/31 04:24:17;;;;;;;1.4;1.3;;;;;;;5.21;78.55469;941.6309;;;;
2021/05/31 04:26:43;;;;;;;2.7;1.4;;;;;;;5.15;78.98438;941.597;;;;
2021/05/31 04:29:08;;;;;;;2;1.6;;;;;;;5.21;79.01758;941.601;;;;
2021/05/31 04:31:34;;;;;;;2.6;1.5;;;;;;;5.3;78.61621;941.6128;;;;
2021/05/31 04:33:59;;;;;;;4.4;1.4;;;;;;;5.37;78.43848;941.6017;;;;
2021/05/31 04:36:27;;;;;;;2;1.1;;;;;;;5.45;77.93555;941.6271;;;;
2021/05/31 04:38:53;;;;;;;2.1;1.5;;;;;;;5.47;78.03906;941.5714;;;;
2021/05/31 04:41:18;;;;;;;4.4;2.2;;;;;;;5.49;77.80469;941.6101;;;;
2021/05/31 04:43:43;;;;;;;1.8;1.2;;;;;;;5.58;77.6084;941.6306;;;;
2021/05/31 04:46:08;;;;;;;2.6;1.1;;;;;;;5.66;77.52148;941.5316;;;;
2021/05/31 04:48:34;;;;;;;2.5;1.5;;;;;;;5.6;77.6123;941.5309;;;;
2021/05/31 04:51:01;;;;;;;2;1.2;;;;;;;5.64;77.4834;941.5308;;;;
2021/05/31 04:53:24;;;;;;;9.3;1.5;;;;;;;5.73;77.1377;941.5331;;;;
2021/05/31 04:55:52;;;;;;;1.8;1.5;;;;;;;5.72;77.13672;941.5278;;;;
2021/05/31 04:58:38;;;;;;;2.1;1.1;;;;;;;5.76;76.90625;941.5371;;;;
2021/05/31 05:01:04;;;;;;;1.8;1.4;;;;;;;5.81;77.07422;941.4916;;;;
2021/05/31 05:03:29;;;;;;;2.5;1.7;;;;;;;6.21;76.94238;941.4356;;;;
2021/05/31 05:05:55;;;;;;;1.3;1.1;;;;;;;8.06;70.09961;941.5204;;;;
2021/05/31 05:08:21;;;;;;;5.9;2.2;;;;;;;10.13;61.83594;941.3933;;;;
2021/05/31 05:10:45;;;;;;;2.2;1.5;;;;;;;11.73;56.06738;941.4087;;;;
2021/05/31 05:13:12;;;;;;;1.9;1.3;;;;;;;13.11;51.50098;941.3395;;;;
2021/05/31 05:15:37;;;;;;;1.2;1.1;;;;;;;13.88;49.55469;941.3058;;;;
2021/05/31 05:18:03;;;;;;;3.9;1.3;;;;;;;14.76;47.06152;941.332;;;;
2021/05/31 05:21:06;;;;;;;2.2;1.2;;;;;;;14.87;46.23145;941.3008;;;;
2021/05/31 05:23:32;;;;;;;1.1;0.9;;;;;;;15.41;45.90723;941.2812;;;;
2021/05/31 05:25:57;;;;;;;1.9;0.8;;;;;;;15.79;43.23242;941.305;;;;
2021/05/31 05:28:37;;;;;;;0.9;0.7;;;;;;;15.19;43.75;941.2561;;;;
2021/05/31 05:31:03;;;;;;;1.5;1.1;;;;;;;15.39;43.96582;941.2202;;;;
2021/05/31 05:33:26;;;;;;;1.6;1.1;;;;;;;14.42;45.87305;941.1795;;;;
2021/05/31 05:37:14;;;;;;;1.4;1;;;;;;;14.65;45.81641;941.139;;;;
2021/05/31 05:40:55;;;;;;;0.8;0.6;;;;;;;17.55;40.28516;941.0527;;;;
2021/05/31 05:43:14;;;;;;;0.9;0.8;;;;;;;18.29;37.41211;941.063;;;;
2021/05/31 05:45:44;;;;;;;0.8;0.6;;;;;;;18.97;36.73633;941.0364;;;;
2021/05/31 05:47:52;;;;;;;7.8;1.1;;;;;;;19.38;35.87305;941.038;;;;
2021/05/31 05:50:17;;;;;;;1;0.7;;;;;;;19.47;35.58984;941.0374;;;;
2021/05/31 05:54:06;;;;;;;0.6;0.6;;;;;;;19.8;35.01074;941.0446;;;;
2021/05/31 05:56:31;;;;;;;0.6;0.6;;;;;;;20.52;33.81738;940.9922;;;;
2021/05/31 05:58:57;;;;;;;2;0.9;;;;;;;20.53;32.89453;940.9281;;;;
2021/05/31 06:01:23;;;;;;;1.5;0.9;;;;;;;21.36;32.57031;940.9256;;;;
2021/05/31 06:06:13;;;;;;;1;0.9;;;;;;;22.47;30.22363;940.8975;;;;
2021/05/31 06:08:38;;;;;;;1.1;0.5;;;;;;;23.16;29.83496;940.817;;;;
2021/05/31 06:11:03;;;;;;;1.3;0.8;;;;;;;22.83;29.30859;940.8264;;;;
2021/05/31 06:13:28;;;;;;;1.8;0.5;;;;;;;23.43;29.62988;940.8486;;;;
2021/05/31 06:15:53;;;;;;;0.6;0.5;;;;;;;23.85;28.6582;940.9144;;;;
2021/05/31 06:18:19;;;;;;;1.6;0.6;;;;;;;25.37;27.21973;940.8546;;;;
2021/05/31 06:20:44;;;;;;;0.5;0.5;;;;;;;25.25;26.48047;940.8334;;;;
2021/05/31 06:25:34;;;;;;;0.9;0.6;;;;;;;27.19;23.50098;940.8265;;;;
2021/05/31 06:28:01;;;;;;;2.3;0.7;;;;;;;28.05;22.31055;940.8164;;;;
2021/05/31 06:30:25;;;;;;;0.8;0.5;;;;;;;28.09;22.37207;940.8142;;;;
2021/05/31 06:32:50;;;;;;;1.2;0.7;;;;;;;28.32;22.27637;940.735;;;;
2021/05/31 06:35:16;;;;;;;0.8;0.5;;;;;;;27.42;22.30273;940.7087;;;;
2021/05/31 06:37:45;;;;;;;0.6;0.3;;;;;;;26.6;23.00879;940.7704;;;;
2021/05/31 06:40:11;;;;;;;0.7;0.5;;;;;;;26.11;23.52734;940.6624;;;;
2021/05/31 06:42:36;;;;;;;0.8;0.4;;;;;;;25.87;26.68359;940.7498;;;;
2021/05/31 06:45:00;;;;;;;0.5;0.5;;;;;;;24.72;25.78906;940.7471;;;;
2021/05/31 06:47:25;;;;;;;0.5;0.3;;;;;;;26.05;24.81348;940.6995;;;;
2021/05/31 06:49:53;;;;;;;0.4;0.4;;;;;;;27.53;22.88965;940.6227;;;;
2021/05/31 06:52:16;;;;;;;0.6;0.3;;;;;;;28.37;23.22949;940.6411;;;;
2021/05/31 06:54:42;;;;;;;1.3;0.6;;;;;;;29.41;22.65137;940.5963;;;;
2021/05/31 06:57:07;;;;;;;0.6;0.5;;;;;;;29.05;22.50293;940.5952;;;;
2021/05/31 06:59:34;;;;;;;0.6;0.3;;;;;;;29.33;20.36035;940.5622;;;;
2021/05/31 07:02:00;;;;;;;0.4;0.3;;;;;;;30.36;20.03613;940.5938;;;;
2021/05/31 07:04:25;;;;;;;0.3;0.3;;;;;;;30.73;19.32422;940.4947;;;;
2021/05/31 07:06:50;;;;;;;0.6;0.5;;;;;;;31.14;19.99902;940.5264;;;;
2021/05/31 07:09:15;;;;;;;1.1;0.5;;;;;;;30.82;19.78223;940.536;;;;
2021/05/31 07:11:44;;;;;;;0.3;0.3;;;;;;;30.06;22.06445;940.5226;;;;
2021/05/31 07:14:05;;;;;;;0.8;0.4;;;;;;;30.16;21.92578;940.5201;;;;
2021/05/31 07:16:30;;;;;;;0.5;0.4;;;;;;;28.88;23.10156;940.5198;;;;
2021/05/31 07:18:55;;;;;;;0.6;0.6;;;;;;;30.3;21.80078;940.4725;;;;
2021/05/31 07:21:20;;;;;;;0.6;0.5;;;;;;;29.75;22.38281;940.4631;;;;
2021/05/31 07:23:46;;;;;;;1.4;0.5;;;;;;;29.15;24.08008;940.5081;;;;
2021/05/31 07:26:11;;;;;;;0.4;0.4;;;;;;;29.77;21.65625;940.4274;;;;
2021/05/31 07:28:37;;;;;;;0.7;0.3;;;;;;;30.85;19.66406;940.402;;;;
2021/05/31 07:31:02;;;;;;;0.4;0.3;;;;;;;31.16;18.61328;940.4378;;;;
2021/05/31 07:33:28;;;;;;;0.1;0.1;;;;;;;29.76;18.59082;940.4175;;;;
2021/05/31 07:35:54;;;;;;;0.6;0.5;;;;;;;29.04;21.08496;940.4338;;;;
2021/05/31 07:38:19;;;;;;;1.2;0.6;;;;;;;28.61;20.625;940.3928;;;;
2021/05/31 07:40:44;;;;;;;1.8;0.5;;;;;;;29.72;20.35352;940.3203;;;;
2021/05/31 07:43:11;;;;;;;1.2;0.5;;;;;;;30.54;18.54004;940.3275;;;;
2021/05/31 07:45:36;;;;;;;0.5;0.4;;;;;;;30.24;19.66113;940.3141;;;;
2021/05/31 07:48:02;;;;;;;0.7;0.5;;;;;;;30.75;18.99023;940.3233;;;;
2021/05/31 07:50:27;;;;;;;0.2;0.2;;;;;;;31.17;19.61816;940.296;;;;
2021/05/31 07:52:52;;;;;;;0.5;0.3;;;;;;;30.69;18.34277;940.3596;;;;
2021/05/31 07:55:18;;;;;;;0.3;0.3;;;;;;;30.38;19.24902;940.3367;;;;
2021/05/31 07:57:45;;;;;;;0.2;0.2;;;;;;;32.13;18.24512;940.3649;;;;
2021/05/31 08:00:10;;;;;;;1.3;0.5;;;;;;;32.39;17.37988;940.3688;;;;
2021/05/31 08:02:37;;;;;;;0.3;0.3;;;;;;;31.49;17.96777;940.3069;;;;
2021/05/31 08:05:00;;;;;;;0.4;0.4;;;;;;;30.19;20.6377;940.27;;;;
2021/05/31 08:07:25;;;;;;;2;0.4;;;;;;;31.67;18.62109;940.2408;;;;
2021/05/31 08:09:50;;;;;;;0.4;0.3;;;;;;;30.71;20.12402;940.2079;;;;
2021/05/31 08:12:15;;;;;;;1.2;0.5;;;;;;;30.73;18.5;940.1777;;;;
2021/05/31 08:14:40;;;;;;;0.6;0.3;;;;;;;29.94;21.03223;940.1489;;;;
2021/05/31 08:17:06;;;;;;;0.5;0.3;;;;;;;28.65;24.35059;940.2128;;;;
2021/05/31 08:19:32;;;;;;;0.5;0.4;;;;;;;31.17;19.37891;940.1719;;;;
2021/05/31 08:21:56;;;;;;;0.8;0.4;;;;;;;30.8;20.13965;940.1702;;;;
2021/05/31 08:24:21;;;;;;;0.4;0.3;;;;;;;31.8;18.6748;940.1221;;;;
2021/05/31 08:26:46;;;;;;;0.9;0.4;;;;;;;30.99;19.63477;940.0779;;;;
2021/05/31 08:29:11;;;;;;;1.4;0.6;;;;;;;31.34;19.85352;940.1021;;;;
2021/05/31 08:31:38;;;;;;;0.8;0.4;;;;;;;31.6;19.26563;940.1058;;;;
2021/05/31 08:34:03;;;;;;;0.7;0.4;;;;;;;30.98;19.66992;940.1404;;;;
2021/05/31 08:36:58;;;;;;;0.5;0.4;;;;;;;31.26;19.93262;940.1531;;;;
2021/05/31 08:39:23;;;;;;;0.5;0.5;;;;;;;30.3;20.09375;940.1125;;;;
2021/05/31 08:41:48;;;;;;;0.7;0.5;;;;;;;30.39;20.44434;940.1727;;;;
2021/05/31 08:44:13;;;;;;;1.8;0.4;;;;;;;28.88;23.0293;940.1922;;;;
2021/05/31 08:46:40;;;;;;;0.3;0.2;;;;;;;30.51;19.67285;940.1408;;;;
2021/05/31 08:49:06;;;;;;;0.4;0.4;;;;;;;30.86;20.44141;940.1191;;;;
2021/05/31 08:51:32;;;;;;;1.6;0.6;;;;;;;30.35;21.27832;940.0876;;;;
2021/05/31 08:53:56;;;;;;;0.3;0.2;;;;;;;31.37;19.45898;940.095;;;;
2021/05/31 08:56:22;;;;;;;0.4;0.3;;;;;;;30.98;19.99316;940.0747;;;;
2021/05/31 08:58:48;;;;;;;0.5;0.4;;;;;;;30.45;21.82031;940.0826;;;;
2021/05/31 09:01:12;;;;;;;0.9;0.5;;;;;;;31.34;19.8291;940.0547;;;;
2021/05/31 09:04:05;;;;;;;0.9;0.3;;;;;;;31.32;19.83984;940.061;;;;
2021/05/31 09:06:33;;;;;;;0.7;0.3;;;;;;;30.85;20.53613;940.0195;;;;
2021/05/31 09:08:56;;;;;;;0.9;0.3;;;;;;;29.76;20.86816;940.0221;;;;
2021/05/31 09:11:22;;;;;;;1.1;0.3;;;;;;;28.99;22.54785;940.0009;;;;
2021/05/31 09:13:46;;;;;;;0.5;0.4;;;;;;;28.06;23.86719;940.0012;;;;
2021/05/31 09:16:12;;;;;;;1.3;0.4;;;;;;;28.88;22.49414;939.9622;;;;
2021/05/31 09:18:36;;;;;;;0.4;0.4;;;;;;;26.31;25.99902;939.9055;;;;
2021/05/31 09:21:03;;;;;;;0.7;0.5;;;;;;;26.56;25.39844;939.9637;;;;
2021/05/31 09:23:30;;;;;;;1.2;0.6;;;;;;;26.51;26.94629;939.9394;;;;
2021/05/31 09:25:55;;;;;;;1.5;0.4;;;;;;;26.85;24.40723;939.985;;;;
2021/05/31 09:28:20;;;;;;;0.4;0.3;;;;;;;27.41;24.55664;939.9322;;;;
2021/05/31 09:30:48;;;;;;;0.9;0.5;;;;;;;27.24;25.82813;940.0203;;;;
2021/05/31 09:33:15;;;;;;;0.7;0.3;;;;;;;27.78;23.10449;939.967;;;;
2021/05/31 09:35:39;;;;;;;0.6;0.6;;;;;;;27.18;24.99512;939.943;;;;
2021/05/31 09:38:04;;;;;;;0.8;0.5;;;;;;;27.49;23.80078;939.9929;;;;
2021/05/31 09:40:29;;;;;;;0.8;0.5;;;;;;;26.71;26.38965;939.954;;;;
2021/05/31 09:42:54;;;;;;;0.6;0.3;;;;;;;27.05;25.27148;939.9294;;;;
2021/05/31 09:45:19;;;;;;;0.6;0.5;;;;;;;26.67;26.41113;939.9052;;;;
2021/05/31 09:47:44;;;;;;;0.2;0.2;;;;;;;26.64;25.74512;939.9292;;;;
2021/05/31 09:50:12;;;;;;;0.3;0.2;;;;;;;26.49;25.05078;939.8422;;;;
2021/05/31 09:52:38;;;;;;;3.7;0.6;;;;;;;26.21;25.47363;939.8574;;;;
2021/05/31 09:55:03;;;;;;;0.6;0.4;;;;;;;25.35;27.59668;939.8436;;;;
2021/05/31 09:57:28;;;;;;;0.6;0.4;;;;;;;24.44;29.24902;939.8159;;;;
2021/05/31 09:59:56;;;;;;;0.2;0.2;;;;;;;24.12;29.16895;939.7986;;;;
2021/05/31 10:02:24;;;;;;;0.4;0.4;;;;;;;23.31;31.78516;939.8002;;;;
2021/05/31 10:04:55;;;;;;;0.6;0.5;;;;;;;23.37;30.1084;939.8027;;;;
2021/05/31 10:07:17;;;;;;;0.3;0.3;;;;;;;22.77;33.15527;939.73;;;;
2021/05/31 10:09:35;;;;;;;0.9;0.6;;;;;;;22.36;34.2041;939.7557;;;;
2021/05/31 10:12:01;;;;;;;0.6;0.5;;;;;;;22;32.23047;939.6752;;;;
2021/05/31 10:14:26;;;;;;;3.6;0.9;;;;;;;22.16;32.21875;939.6558;;;;
2021/05/31 10:16:53;;;;;;;0.3;0.2;;;;;;;21.95;33.87891;939.71;;;;
2021/05/31 10:19:18;;;;;;;1;0.6;;;;;;;22.3;30.66895;939.6766;;;;
2021/05/31 10:21:44;;;;;;;0.2;0.2;;;;;;;22.42;33.73926;939.6011;;;;
2021/05/31 10:24:09;;;;;;;2.1;0.5;;;;;;;22.16;32.27734;939.5522;;;;
2021/05/31 10:26:36;;;;;;;0.5;0.5;;;;;;;22.46;31.36035;939.6124;;;;
2021/05/31 10:29:02;;;;;;;0.6;0.4;;;;;;;22.2;32.49121;939.5144;;;;
2021/05/31 10:31:28;;;;;;;1;0.4;;;;;;;22.14;33.63574;939.4766;;;;
2021/05/31 10:33:52;;;;;;;1.5;0.4;;;;;;;22.34;33.85059;939.5375;;;;
2021/05/31 10:36:19;;;;;;;4;0.5;;;;;;;22.31;32.06543;939.5286;;;;
2021/05/31 10:38:44;;;;;;;0.2;0.2;;;;;;;22.33;32.79395;939.55;;;;
2021/05/31 10:41:08;;;;;;;0.9;0.5;;;;;;;21.57;33.82715;939.4953;;;;
2021/05/31 10:43:33;;;;;;;1.6;0.6;;;;;;;21.41;34.23535;939.5461;;;;
2021/05/31 10:45:58;;;;;;;0.3;0.3;;;;;;;21.49;34.20801;939.4725;;;;
2021/05/31 10:48:23;;;;;;;0.7;0.3;;;;;;;21.59;34.64746;939.4558;;;;
2021/05/31 10:50:48;;;;;;;1.1;0.4;;;;;;;21.81;31.73633;939.5075;;;;
2021/05/31 10:53:13;;;;;;;12.5;0.6;;;;;;;21.67;32.93262;939.3734;;;;
2021/05/31 10:55:39;;;;;;;0.4;0.3;;;;;;;21.67;33.02637;939.3936;;;;
2021/05/31 10:58:04;;;;;;;1.3;0.5;;;;;;;21.55;34.52832;939.3409;;;;
2021/05/31 11:00:29;;;;;;;1;0.6;;;;;;;21.63;32.35645;939.3;;;;
2021/05/31 11:02:54;;;;;;;0.3;0.3;;;;;;;21.79;32.09863;939.3563;;;;
2021/05/31 11:05:19;;;;;;;1.3;0.5;;;;;;;21.82;32.44043;939.4125;;;;
2021/05/31 11:07:45;;;;;;;1.8;0.6;;;;;;;21.63;32.48535;939.3412;;;;
2021/05/31 11:10:10;;;;;;;0.2;0.2;;;;;;;21.81;30.75195;939.3778;;;;
2021/05/31 11:12:35;;;;;;;1.5;0.5;;;;;;;21.8;31.4668;939.4088;;;;
2021/05/31 11:15:00;;;;;;;0.3;0.3;;;;;;;21.78;31.96875;939.4274;;;;
2021/05/31 11:17:27;;;;;;;1;0.2;;;;;;;21.88;30.99219;939.4431;;;;
2021/05/31 11:19:52;;;;;;;0.4;0.3;;;;;;;21.74;31.15723;939.4563;;;;
2021/05/31 11:22:17;;;;;;;0.9;0.4;;;;;;;21.59;32.15332;939.4153;;;;
2021/05/31 11:24:42;;;;;;;0.9;0.3;;;;;;;21.68;31.28223;939.4313;;;;
2021/05/31 11:27:08;;;;;;;1.6;0.4;;;;;;;21.56;32.43262;939.3862;;;;
2021/05/31 11:29:33;;;;;;;0.3;0.3;;;;;;;21.49;31.87695;939.4119;;;;
2021/05/31 11:32:00;;;;;;;0.4;0.4;;;;;;;21.37;32.41895;939.3423;;;;
2021/05/31 11:34:25;;;;;;;0.2;0.2;;;;;;;21.42;32.28223;939.3577;;;;
2021/05/31 11:36:50;;;;;;;0.4;0.3;;;;;;;21.5;33.82129;939.2982;;;;
2021/05/31 11:39:15;;;;;;;0.5;0.5;;;;;;;21.48;32.42773;939.3675;;;;
2021/05/31 11:41:41;;;;;;;1;0.4;;;;;;;21.55;32.0459;939.2592;;;;
2021/05/31 11:44:06;;;;;;;1.4;0.5;;;;;;;21.54;32.32617;939.2458;;;;
2021/05/31 11:46:31;;;;;;;0.3;0.3;;;;;;;21.5;33.07227;939.3239;;;;
2021/05/31 11:48:56;;;;;;;0.3;0.3;;;;;;;21.72;32.09277;939.3183;;;;
2021/05/31 11:51:21;;;;;;;1.5;0.5;;;;;;;21.83;32.40625;939.3197;;;;
2021/05/31 11:53:48;;;;;;;0.6;0.6;;;;;;;21.74;31.16895;939.2974;;;;
2021/05/31 11:56:13;;;;;;;0.5;0.4;;;;;;;21.73;31.23926;939.287;;;;
2021/05/31 11:58:38;;;;;;;0.4;0.4;;;;;;;21.7;33.0293;939.24;;;;
2021/05/31 12:01:03;;;;;;;0.1;0.1;;;;;;;21.49;33.55176;939.1979;;;;
2021/05/31 12:03:28;;;;;;;0.3;0.3;;;;;;;21.61;33.20996;939.1845;;;;
2021/05/31 12:05:53;;;;;;;0.4;0.4;;;;;;;21.71;31.56543;939.222;;;;
2021/05/31 12:08:18;;;;;;;0.3;0.3;;;;;;;21.69;32.29004;939.1961;;;;
2021/05/31 12:10:43;;;;;;;0.9;0.4;;;;;;;21.5;33.11914;939.2058;;;;
2021/05/31 12:13:11;;;;;;;0.8;0.4;;;;;;;21.33;32.87207;939.2003;;;;
2021/05/31 12:15:36;;;;;;;0.9;0.6;;;;;;;21.46;32.96387;939.1761;;;;
2021/05/31 12:18:01;;;;;;;0.6;0.4;;;;;;;21.14;32.8584;939.2327;;;;
2021/05/31 12:20:26;;;;;;;0.2;0.2;;;;;;;21.21;31.40039;939.2364;;;;
2021/05/31 12:22:54;;;;;;;2.7;0.9;;;;;;;21.42;31.88379;939.2095;;;;
2021/05/31 12:25:20;;;;;;;5.4;0.5;;;;;;;21.51;31.45801;939.1542;;;;
2021/05/31 12:27:44;;;;;;;0.3;0.3;;;;;;;21.17;33.70215;939.1972;;;;
2021/05/31 12:30:09;;;;;;;0.3;0.2;;;;;;;21.35;31.54004;939.1873;;;;
2021/05/31 12:32:35;;;;;;;0.3;0.3;;;;;;;21.26;34.35352;939.2217;;;;
2021/05/31 12:35:00;;;;;;;0.6;0.3;;;;;;;21.3;33.16309;939.2026;;;;
2021/05/31 12:37:25;;;;;;;0.4;0.4;;;;;;;21.28;32.03809;939.1742;;;;
2021/05/31 12:39:50;;;;;;;1.4;0.5;;;;;;;21.24;33.20508;939.18;;;;
2021/05/31 12:42:16;;;;;;;0.2;0.2;;;;;;;21.3;32.78906;939.1136;;;;
2021/05/31 12:44:41;;;;;;;0.6;0.3;;;;;;;21.06;33.78809;939.1403;;;;
2021/05/31 12:47:06;;;;;;;3.9;0.6;;;;;;;21.21;32.10254;939.1255;;;;
2021/05/31 12:49:31;;;;;;;0.1;0.1;;;;;;;21.24;32.92383;939.1672;;;;
2021/05/31 12:51:56;;;;;;;1.4;0.4;;;;;;;21.33;31.09375;939.0801;;;;
2021/05/31 12:54:21;;;;;;;0.6;0.4;;;;;;;21.27;31.79102;939.1006;;;;
2021/05/31 12:56:46;;;;;;;0.3;0.3;;;;;;;21.51;32.88574;939.0992;;;;
2021/05/31 12:59:12;;;;;;;0.3;0.2;;;;;;;21.55;30.32422;939.1628;;;;
2021/05/31 13:01:37;;;;;;;1.1;0.3;;;;;;;21.26;32.71484;939.0969;;;;
2021/05/31 13:04:02;;;;;;;0.2;0.2;;;;;;;21.18;32.65039;939.1951;;;;
2021/05/31 13:06:28;;;;;;;0.6;0.4;;;;;;;21.26;31.47461;939.1893;;;;
2021/05/31 13:08:56;;;;;;;0.2;0.2;;;;;;;21.29;31.83984;939.181;;;;
2021/05/31 13:11:49;;;;;;;1.1;0.4;;;;;;;21.41;30.80664;939.1222;;;;
2021/05/31 13:14:16;;;;;;;1;0.5;;;;;;;21.59;31.08789;939.1471;;;;
2021/05/31 13:16:41;;;;;;;1;0.6;;;;;;;21.1;32.18945;939.1309;;;;
2021/05/31 13:19:07;;;;;;;5.6;0.5;;;;;;;21.1;32.17676;939.1166;;;;
2021/05/31 13:21:32;;;;;;;1.2;0.7;;;;;;;21.25;31.14648;939.1905;;;;
2021/05/31 13:23:57;;;;;;;0.2;0.2;;;;;;;21.4;30.31445;939.1769;;;;
2021/05/31 13:26:24;;;;;;;0.5;0.4;;;;;;;21.2;30.97949;939.1029;;;;
2021/05/31 13:28:48;;;;;;;0.6;0.2;;;;;;;21.24;31.05176;939.1614;;;;
2021/05/31 13:31:12;;;;;;;4.5;0.5;;;;;;;21.15;32.42676;939.1013;;;;
2021/05/31 13:33:38;;;;;;;1;0.3;;;;;;;21.15;30.56641;939.038;;;;
2021/05/31 13:36:03;;;;;;;0.5;0.4;;;;;;;20.95;33.07813;939.0291;;;;
2021/05/31 13:38:28;;;;;;;1.1;0.5;;;;;;;21.08;32.99414;939.0388;;;;
2021/05/31 13:40:53;;;;;;;0.5;0.4;;;;;;;21.07;33.30859;939.0455;;;;
2021/05/31 13:43:18;;;;;;;0.4;0.4;;;;;;;21.04;32.05566;939.0519;;;;
2021/05/31 13:45:43;;;;;;;0.4;0.3;;;;;;;21.2;31.44727;939.0762;;;;
2021/05/31 13:48:08;;;;;;;0.3;0.3;;;;;;;21.35;32.23047;938.9824;;;;
2021/05/31 13:50:34;;;;;;;1.9;0.6;;;;;;;21.29;33.62988;938.973;;;;
2021/05/31 13:52:59;;;;;;;1.1;0.6;;;;;;;21.1;31.08984;938.9642;;;;
2021/05/31 13:55:24;;;;;;;0.4;0.4;;;;;;;20.93;32.1875;939.0257;;;;
2021/05/31 13:57:50;;;;;;;0.3;0.3;;;;;;;20.92;33.36816;939.0212;;;;
2021/05/31 14:00:15;;;;;;;0.1;0.1;;;;;;;21.03;32.26465;939.0338;;;;
2021/05/31 14:02:42;;;;;;;1.8;0.7;;;;;;;21.19;32.63965;939.0117;;;;
2021/05/31 14:05:07;;;;;;;0.9;0.5;;;;;;;21.29;32.92773;938.9607;;;;
2021/05/31 14:07:33;;;;;;;0.4;0.3;;;;;;;21.1;32.41113;939.0031;;;;
2021/05/31 14:09:59;;;;;;;1.3;0.5;;;;;;;21.11;31.28906;938.9655;;;;
2021/05/31 14:12:24;;;;;;;1.2;0.6;;;;;;;20.86;31.30664;938.8853;;;;
2021/05/31 14:14:50;;;;;;;0.5;0.4;;;;;;;20.7;31.69238;938.9633;;;;
2021/05/31 14:17:15;;;;;;;1.2;0.8;;;;;;;20.7;32.55664;938.9747;;;;
2021/05/31 14:19:43;;;;;;;1;0.6;;;;;;;20.62;31.94336;938.9597;;;;
2021/05/31 14:22:09;;;;;;;1.5;0.3;;;;;;;20.54;33.58496;938.9717;;;;
2021/05/31 14:24:33;;;;;;;0.5;0.5;;;;;;;20.52;35.45215;938.9243;;;;
2021/05/31 14:26:58;;;;;;;1.1;0.5;;;;;;;20.51;33.69922;938.9222;;;;
2021/05/31 14:29:23;;;;;;;0.7;0.5;;;;;;;20.59;31.8125;938.916;;;;
2021/05/31 14:31:48;;;;;;;0.1;0.1;;;;;;;20.5;32.28516;938.9628;;;;
2021/05/31 14:34:13;;;;;;;1.3;0.7;;;;;;;20.55;33.41016;938.8895;;;;
2021/05/31 14:36:39;;;;;;;0.3;0.3;;;;;;;20.54;33.78418;938.8995;;;;
2021/05/31 14:39:04;;;;;;;0.4;0.3;;;;;;;20.59;33.97363;938.9281;;;;